Time;durP1;ratioP1;P1;durP2;ratioP2;P2;SDS_P1;SDS_P2;PMS_P1;PMS_P2;Temp;Humidity;BMP_temperature;BMP_pressure;BME280_temperature;BME280_humidity;BME280_pressure;Samples;Min_cycle;Max_cycle;Signal;HPM_P1;HPM_P2
2023/05/20 00:03:28;;;;;;;4.75;1.98;;;11.40;99.90;;;;;;7325509;32;20099;-56
2023/05/20 00:07:30;;;;;;;3.33;1.85;;;11.50;99.90;;;;;;7327864;32;20091;-56
2023/05/20 00:11:32;;;;;;;3.72;2.08;;;11.40;99.90;;;;;;7327891;32;20119;-56
2023/05/20 00:15:35;;;;;;;4.07;2.28;;;11.40;99.90;;;;;;7325688;32;20131;-56
2023/05/20 00:19:37;;;;;;;7.10;2.20;;;11.20;99.90;;;;;;7326161;32;20138;-56
2023/05/20 00:23:39;;;;;;;4.68;2.08;;;11.10;99.90;;;;;;7326536;32;20146;-56
2023/05/20 00:27:41;;;;;;;4.40;1.80;;;11.00;99.90;;;;;;7325600;32;20200;-57
2023/05/20 00:31:43;;;;;;;8.15;2.17;;;10.80;99.90;;;;;;7325259;32;20141;-56
2023/05/20 00:35:44;;;;;;;6.45;2.05;;;10.70;99.90;;;;;;7322913;32;20951;-56
2023/05/20 00:39:46;;;;;;;4.20;2.10;;;10.60;99.90;;;;;;7324600;32;20099;-56
2023/05/20 00:43:53;;;;;;;4.45;2.67;;;10.50;99.90;;;;;;7327349;32;20162;-56
2023/05/20 00:47:58;;;;;;;3.10;2.10;;;10.40;99.90;;;;;;7323302;32;20194;-56
2023/05/20 00:52:00;;;;;;;4.03;2.22;;;10.40;99.90;;;;;;7325539;32;20544;-57
2023/05/20 00:56:03;;;;;;;5.85;2.05;;;10.30;99.90;;;;;;7323599;32;20124;-56
2023/05/20 01:00:07;;;;;;;4.18;2.35;;;10.20;99.90;;;;;;7322345;32;20209;-56
2023/05/20 01:04:08;;;;;;;5.70;2.00;;;10.10;99.90;;;;;;7322055;32;20099;-56
2023/05/20 01:08:11;;;;;;;5.72;2.20;;;10.00;99.90;;;;;;7325749;32;20129;-55
2023/05/20 01:12:20;;;;;;;5.60;2.20;;;9.90;99.90;;;;;;7326400;32;20690;-56
2023/05/20 01:16:23;;;;;;;4.95;2.15;;;9.80;99.90;;;;;;7323621;32;20258;-57
2023/05/20 01:20:26;;;;;;;2.62;2.15;;;9.70;99.90;;;;;;7323448;32;21029;-56
2023/05/20 01:24:28;;;;;;;5.47;2.40;;;9.60;99.90;;;;;;7310050;32;20118;-56
2023/05/20 01:28:30;;;;;;;4.03;2.47;;;9.50;99.90;;;;;;7324915;32;20170;-57
2023/05/20 01:32:38;;;;;;;4.97;2.33;;;9.40;99.90;;;;;;7324923;32;20162;-56
2023/05/20 01:36:40;;;;;;;;;;;9.30;99.90;;;;;;7324717;32;20146;-56
2023/05/20 01:40:43;;;;;;;4.47;2.10;;;9.20;99.90;;;;;;7323457;32;20046;-56
2023/05/20 01:44:45;;;;;;;10.35;2.80;;;9.20;99.90;;;;;;7319490;32;20246;-56
2023/05/20 01:48:46;;;;;;;4.65;2.60;;;9.10;99.90;;;;;;7325131;32;20139;-56
2023/05/20 01:52:48;;;;;;;4.25;2.55;;;9.00;99.90;;;;;;7325382;32;20158;-56
2023/05/20 01:56:50;;;;;;;3.80;2.20;;;9.10;99.90;;;;;;7308201;32;20280;-56
2023/05/20 02:00:52;;;;;;;4.15;2.25;;;9.00;99.90;;;;;;7319318;32;20114;-56
2023/05/20 02:04:54;;;;;;;4.60;2.50;;;9.00;99.90;;;;;;7324450;32;20768;-56
2023/05/20 02:08:56;;;;;;;7.05;2.65;;;9.00;99.90;;;;;;7325346;32;20651;-56
2023/05/20 02:12:58;;;;;;;5.95;2.78;;;8.90;99.90;;;;;;7308219;32;20241;-56
2023/05/20 02:16:59;;;;;;;3.78;2.53;;;8.90;99.90;;;;;;7322821;32;20178;-58
2023/05/20 02:21:02;;;;;;;5.10;2.80;;;8.90;99.90;;;;;;7324264;32;20578;-56
2023/05/20 02:25:05;;;;;;;6.07;2.70;;;8.90;99.90;;;;;;7324277;32;20103;-56
2023/05/20 02:29:07;;;;;;;5.22;2.85;;;8.90;99.90;;;;;;7321907;32;20272;-56
2023/05/20 02:33:09;;;;;;;7.00;2.90;;;8.90;99.90;;;;;;7319943;32;20103;-56
2023/05/20 02:37:11;;;;;;;5.10;2.78;;;8.90;99.90;;;;;;7323381;32;20103;-57
2023/05/20 02:41:12;;;;;;;4.32;2.35;;;9.00;99.90;;;;;;7323462;32;20099;-56
2023/05/20 02:45:14;;;;;;;3.97;2.58;;;9.00;99.90;;;;;;7321844;32;20103;-56
2023/05/20 02:49:16;;;;;;;7.20;3.25;;;9.00;99.90;;;;;;7322581;32;20714;-56
2023/05/20 02:53:18;;;;;;;5.97;2.90;;;9.10;99.90;;;;;;7324673;32;20121;-57
2023/05/20 02:57:20;;;;;;;4.60;2.78;;;9.10;99.90;;;;;;7299482;32;20229;-56
2023/05/20 03:01:22;;;;;;;4.90;2.65;;;9.10;99.90;;;;;;7320398;32;20104;-56
2023/05/20 03:05:24;;;;;;;6.78;2.62;;;9.10;99.90;;;;;;7325229;32;20142;-56
2023/05/20 03:09:26;;;;;;;5.20;2.80;;;9.10;99.90;;;;;;7323368;32;20091;-56
2023/05/20 03:13:27;;;;;;;4.85;2.65;;;9.10;99.90;;;;;;7323141;32;20123;-56
2023/05/20 03:17:29;;;;;;;5.93;2.62;;;9.20;99.90;;;;;;7322948;32;20170;-56
2023/05/20 03:21:31;;;;;;;5.62;2.67;;;9.30;99.90;;;;;;7325257;32;20103;-56
2023/05/20 03:25:33;;;;;;;4.90;2.58;;;9.30;99.90;;;;;;7322673;32;20137;-55
2023/05/20 03:29:36;;;;;;;6.55;2.58;;;9.40;99.90;;;;;;7323998;32;20099;-56
2023/05/20 03:33:38;;;;;;;5.22;2.70;;;9.40;99.90;;;;;;7324316;32;20111;-56
2023/05/20 03:37:40;;;;;;;4.45;2.75;;;9.40;99.90;;;;;;7321956;32;20214;-56
2023/05/20 03:41:42;;;;;;;5.87;2.45;;;9.40;99.90;;;;;;7325616;32;20463;-56
2023/05/20 03:45:43;;;;;;;3.97;2.78;;;9.50;99.90;;;;;;7327845;32;20130;-56
2023/05/20 03:49:45;;;;;;;5.50;2.87;;;9.40;99.90;;;;;;7327575;32;20153;-56
2023/05/20 03:53:47;;;;;;;5.85;2.47;;;9.40;99.90;;;;;;7332862;32;20205;-56
2023/05/20 03:57:49;;;;;;;3.35;2.42;;;9.50;99.90;;;;;;7328661;32;20519;-56
2023/05/20 04:01:51;;;;;;;8.15;2.70;;;9.60;99.90;;;;;;7327467;32;20582;-56
2023/05/20 04:05:52;;;;;;;4.65;2.42;;;9.60;99.90;;;;;;7332405;32;20400;-56
2023/05/20 04:09:54;;;;;;;6.10;2.33;;;9.70;99.90;;;;;;7335973;32;20585;-56
2023/05/20 04:13:59;;;;;;;6.68;2.90;;;9.80;99.90;;;;;;7330484;32;20210;-56
2023/05/20 04:18:00;;;;;;;6.90;2.70;;;9.80;99.90;;;;;;7323583;32;20126;-56
2023/05/20 04:22:03;;;;;;;4.40;2.53;;;9.90;99.90;;;;;;7329174;32;20107;-56
2023/05/20 04:26:05;;;;;;;4.97;2.55;;;9.90;99.90;;;;;;7326076;32;20110;-56
2023/05/20 04:30:07;;;;;;;3.83;2.72;;;10.10;99.90;;;;;;7329199;32;20919;-56
2023/05/20 04:34:09;;;;;;;5.65;2.50;;;10.10;99.90;;;;;;7325081;32;20210;-56
2023/05/20 04:38:11;;;;;;;3.10;2.30;;;10.30;99.90;;;;;;7325071;32;20108;-56
2023/05/20 04:42:13;;;;;;;5.22;2.75;;;10.40;99.90;;;;;;7330607;32;20141;-56
2023/05/20 04:46:15;;;;;;;5.05;2.30;;;10.70;99.90;;;;;;7325753;32;20201;-56
2023/05/20 04:50:17;;;;;;;5.25;2.60;;;10.80;99.90;;;;;;7325928;32;20779;-56
2023/05/20 04:54:19;;;;;;;6.20;2.50;;;11.10;99.90;;;;;;7326194;32;20227;-56
2023/05/20 04:58:23;;;;;;;6.57;2.35;;;11.30;99.90;;;;;;7331422;32;20149;-56
2023/05/20 05:02:24;;;;;;;4.45;2.35;;;11.70;99.90;;;;;;7322296;32;20112;-56
2023/05/20 05:06:26;;;;;;;4.18;2.22;;;12.00;99.90;;;;;;7330564;32;20126;-56
2023/05/20 05:10:28;;;;;;;5.00;2.15;;;12.40;99.90;;;;;;7328500;32;20759;-57
2023/05/20 05:14:30;;;;;;;5.93;2.30;;;12.60;99.90;;;;;;7322586;32;21574;-56
2023/05/20 05:18:32;;;;;;;5.70;2.58;;;12.60;99.90;;;;;;7330063;32;20118;-56
2023/05/20 05:22:35;;;;;;;4.80;2.50;;;12.30;99.90;;;;;;7329336;32;20107;-58
2023/05/20 05:26:37;;;;;;;5.78;2.83;;;11.90;99.90;;;;;;7327882;32;20160;-57
2023/05/20 05:30:39;;;;;;;5.55;2.60;;;11.70;99.90;;;;;;7324296;32;20146;-56
2023/05/20 05:34:41;;;;;;;5.55;2.67;;;11.70;99.90;;;;;;7335349;32;20239;-56
2023/05/20 05:38:43;;;;;;;4.53;2.50;;;11.70;99.90;;;;;;7333786;32;20142;-57
2023/05/20 05:42:45;;;;;;;4.00;2.58;;;11.60;99.90;;;;;;7329579;32;20118;-56
2023/05/20 05:46:46;;;;;;;6.93;2.70;;;11.70;99.90;;;;;;7324106;32;20202;-56
2023/05/20 05:50:48;;;;;;;7.50;3.20;;;11.80;99.90;;;;;;7326061;32;20131;-56
2023/05/20 05:54:50;;;;;;;6.28;2.72;;;12.00;99.90;;;;;;7314015;32;20157;-58
2023/05/20 05:58:52;;;;;;;4.25;2.80;;;12.00;99.90;;;;;;7327401;32;20112;-57
2023/05/20 06:02:54;;;;;;;4.25;2.47;;;12.00;99.90;;;;;;7333780;32;20151;-57
2023/05/20 06:06:56;;;;;;;6.68;2.90;;;12.10;99.90;;;;;;7327075;32;20143;-57
2023/05/20 06:10:57;;;;;;;6.30;2.80;;;12.30;99.90;;;;;;7327059;32;20150;-57
2023/05/20 06:14:59;;;;;;;3.33;2.47;;;12.70;99.90;;;;;;7324411;32;20514;-57
2023/05/20 06:19:02;;;;;;;4.22;2.53;;;13.00;99.90;;;;;;7325429;32;20223;-56
2023/05/20 06:23:04;;;;;;;4.10;2.70;;;13.30;99.90;;;;;;7311960;32;20210;-57
2023/05/20 06:27:06;;;;;;;5.43;2.47;;;13.50;99.90;;;;;;7332060;32;20231;-57
2023/05/20 06:31:08;;;;;;;5.37;2.47;;;13.90;99.90;;;;;;7337041;32;20158;-57
2023/05/20 06:35:11;;;;;;;6.30;2.62;;;14.40;99.90;;;;;;7329051;32;20137;-57
2023/05/20 06:39:12;;;;;;;5.10;2.80;;;14.70;99.90;;;;;;7333348;32;20112;-57
2023/05/20 06:43:15;;;;;;;4.25;2.70;;;15.00;99.90;;;;;;7339047;32;20111;-57
2023/05/20 06:47:18;;;;;;;5.82;2.97;;;15.30;99.90;;;;;;7334388;32;20246;-57
2023/05/20 06:51:20;;;;;;;8.45;3.53;;;15.40;99.90;;;;;;7333917;32;20099;-57
2023/05/20 06:55:22;;;;;;;6.40;3.47;;;14.70;99.90;;;;;;7328641;32;20346;-57
2023/05/20 06:59:24;;;;;;;5.12;3.30;;;14.50;99.90;;;;;;7327307;32;20135;-57
2023/05/20 07:03:25;;;;;;;8.43;3.40;;;14.30;99.90;;;;;;7324189;32;20122;-57
2023/05/20 07:07:27;;;;;;;4.68;3.10;;;14.60;99.90;;;;;;7330418;32;20647;-58
2023/05/20 07:11:29;;;;;;;4.95;3.17;;;14.70;99.90;;;;;;7313149;32;20100;-58
2023/05/20 07:15:31;;;;;;;5.95;3.20;;;14.60;99.90;;;;;;7322663;32;20210;-58
2023/05/20 07:19:33;;;;;;;3.72;2.60;;;14.50;99.90;;;;;;7324435;32;20545;-59
2023/05/20 07:23:35;;;;;;;3.75;2.85;;;14.30;99.90;;;;;;7326960;32;20464;-58
2023/05/20 07:27:37;;;;;;;7.43;3.05;;;14.20;99.90;;;;;;7327386;32;20104;-58
2023/05/20 07:31:39;;;;;;;5.28;3.22;;;14.20;99.90;;;;;;7328253;32;20240;-59
2023/05/20 07:35:40;;;;;;;6.57;3.35;;;14.20;99.90;;;;;;7319801;32;20282;-58
2023/05/20 07:39:42;;;;;;;4.05;3.30;;;14.30;99.90;;;;;;7316268;32;20416;-58
2023/05/20 07:43:45;;;;;;;6.62;4.35;;;14.20;99.90;;;;;;7328045;32;20154;-58
2023/05/20 07:47:47;;;;;;;5.75;3.35;;;14.10;99.90;;;;;;7320813;32;20845;-59
2023/05/20 07:51:48;;;;;;;5.20;3.45;;;14.10;99.90;;;;;;7332740;32;20450;-59
2023/05/20 07:55:50;;;;;;;7.00;3.33;;;14.10;99.90;;;;;;7337600;32;20201;-59
2023/05/20 07:59:52;;;;;;;4.95;3.80;;;14.30;99.90;;;;;;7330351;32;20680;-59
2023/05/20 08:03:54;;;;;;;5.60;3.53;;;14.40;99.90;;;;;;7336186;32;20162;-59
2023/05/20 08:07:56;;;;;;;7.05;3.25;;;14.30;99.90;;;;;;7326554;32;20127;-58
2023/05/20 08:11:58;;;;;;;6.35;3.03;;;14.40;99.90;;;;;;7329088;32;20215;-58
2023/05/20 08:16:00;;;;;;;6.18;3.50;;;14.60;99.90;;;;;;7324476;32;20267;-58
2023/05/20 08:20:02;;;;;;;8.05;4.25;;;14.80;99.90;;;;;;7326300;32;20698;-58
2023/05/20 08:24:04;;;;;;;6.57;3.70;;;14.80;99.90;;;;;;7314877;32;20486;-58
2023/05/20 08:28:06;;;;;;;8.63;3.72;;;14.70;99.90;;;;;;7329542;32;20118;-59
2023/05/20 08:32:08;;;;;;;6.25;3.60;;;14.90;99.90;;;;;;7328813;32;20311;-58
2023/05/20 08:36:09;;;;;;;6.15;4.05;;;14.90;99.90;;;;;;7326129;32;20533;-58
2023/05/20 08:40:13;;;;;;;6.78;3.47;;;15.00;99.90;;;;;;7335249;32;20172;-58
2023/05/20 08:44:17;;;;;;;7.37;4.18;;;15.10;99.90;;;;;;7327995;32;20509;-58
2023/05/20 08:48:22;;;;;;;6.07;4.47;;;15.20;99.90;;;;;;7330115;32;20540;-57
2023/05/20 08:52:25;;;;;;;6.95;4.43;;;15.50;99.90;;;;;;7330911;32;20666;-58
2023/05/20 08:56:27;;;;;;;7.25;4.85;;;15.30;99.90;;;;;;7326700;32;20112;-57
2023/05/20 09:00:31;;;;;;;12.27;7.37;;;15.30;99.90;;;;;;7314924;32;20598;-58
2023/05/20 09:04:33;;;;;;;10.90;4.85;;;15.40;99.90;;;;;;7333547;32;20587;-59
2023/05/20 09:08:36;;;;;;;8.45;4.30;;;15.60;99.90;;;;;;7337303;32;20280;-62
2023/05/20 09:12:38;;;;;;;5.85;4.03;;;15.70;99.90;;;;;;7313365;32;20163;-60
2023/05/20 09:16:40;;;;;;;7.72;4.40;;;15.70;99.90;;;;;;7327086;32;20100;-58
2023/05/20 09:20:42;;;;;;;7.87;4.47;;;15.80;99.90;;;;;;7324089;32;20122;-58
2023/05/20 09:24:43;;;;;;;6.72;4.55;;;16.00;99.90;;;;;;7325797;32;20499;-57
2023/05/20 09:28:45;;;;;;;6.22;4.25;;;16.20;99.90;;;;;;7328514;32;20107;-57
2023/05/20 09:32:58;;;;;;;6.05;4.40;;;16.10;99.90;;;;;;7329292;32;20239;-57
2023/05/20 09:37:00;;;;;;;8.57;5.03;;;16.10;99.90;;;;;;7332845;32;20139;-59
2023/05/20 09:41:06;;;;;;;7.82;4.68;;;16.00;99.90;;;;;;7328457;32;20175;-57
2023/05/20 09:45:08;;;;;;;5.40;4.63;;;16.00;99.90;;;;;;7326270;32;20265;-57
2023/05/20 09:49:11;;;;;;;6.75;5.05;;;15.80;99.90;;;;;;7329075;32;20108;-58
2023/05/20 09:53:13;;;;;;;12.43;5.10;;;15.60;99.90;;;;;;7332577;32;20677;-58
2023/05/20 09:57:15;;;;;;;6.45;4.65;;;15.70;99.90;;;;;;7331558;32;20253;-57
2023/05/20 10:01:17;;;;;;;8.45;4.93;;;15.80;99.90;;;;;;7323644;32;20236;-57
2023/05/20 10:05:21;;;;;;;5.97;4.47;;;16.10;99.90;;;;;;7329759;32;20285;-58
2023/05/20 10:09:54;;;;;;;6.93;4.78;;;16.30;99.90;;;;;;7329240;32;20130;-57
2023/05/20 10:14:17;;;;;;;9.65;5.35;;;16.60;99.90;;;;;;7318721;32;20129;-57
2023/05/20 10:18:25;;;;;;;8.55;5.47;;;16.50;99.90;;;;;;7330689;32;20198;-58
2023/05/20 10:22:28;;;;;;;10.98;5.95;;;16.60;99.90;;;;;;7334651;32;20184;-58
2023/05/20 10:26:41;;;;;;;9.32;5.35;;;16.40;99.90;;;;;;7323540;32;20889;-59
2023/05/20 10:30:49;;;;;;;8.23;5.28;;;16.70;99.90;;;;;;7328679;32;20712;-58
2023/05/20 10:34:51;;;;;;;6.20;5.40;;;16.40;99.90;;;;;;7317892;32;20179;-57
2023/05/20 10:38:55;;;;;;;7.47;5.12;;;16.10;99.90;;;;;;7315570;32;20584;-58
2023/05/20 10:43:11;;;;;;;7.75;5.70;;;15.90;99.90;;;;;;7328110;32;20188;-57
2023/05/20 10:47:13;;;;;;;10.65;5.43;;;15.40;99.90;;;;;;7322660;32;20731;-58
2023/05/20 10:51:20;;;;;;;6.57;5.75;;;15.50;99.90;;;;;;7311269;32;20100;-58
2023/05/20 10:55:22;;;;;;;9.80;6.12;;;15.50;99.90;;;;;;7307692;32;20233;-58
2023/05/20 10:59:25;;;;;;;9.23;6.05;;;15.50;99.90;;;;;;7324715;32;20388;-58
2023/05/20 11:03:28;;;;;;;10.70;5.87;;;15.50;99.90;;;;;;7327158;32;20258;-58
2023/05/20 11:07:31;;;;;;;7.05;5.53;;;15.60;99.90;;;;;;7322565;32;20120;-58
2023/05/20 11:11:33;;;;;;;8.60;5.90;;;15.70;99.90;;;;;;7324825;32;20174;-58
2023/05/20 11:15:35;;;;;;;10.15;5.97;;;15.70;99.90;;;;;;7324725;32;20220;-59
2023/05/20 11:19:37;;;;;;;8.95;5.82;;;15.60;99.90;;;;;;7328041;32;20241;-58
2023/05/20 11:23:39;;;;;;;10.32;5.32;;;15.70;99.90;;;;;;7312880;32;20669;-58
2023/05/20 11:27:42;;;;;;;9.10;5.95;;;15.80;99.90;;;;;;7331071;32;20104;-58
2023/05/20 11:31:45;;;;;;;6.93;5.30;;;15.90;99.90;;;;;;7323388;32;20259;-58
2023/05/20 11:35:49;;;;;;;9.13;6.20;;;16.10;99.90;;;;;;7324544;32;20695;-57
2023/05/20 11:40:06;;;;;;;8.07;6.50;;;16.10;99.90;;;;;;7329126;32;20535;-64
2023/05/20 11:44:14;;;;;;;11.50;7.30;;;16.20;99.90;;;;;;7329513;32;20103;-59
2023/05/20 11:48:17;;;;;;;14.82;6.75;;;16.40;99.90;;;;;;7312213;32;20164;-59
2023/05/20 11:52:19;;;;;;;20.95;10.18;;;16.80;99.90;;;;;;7325476;32;20206;-59
2023/05/20 11:56:22;;;;;;;7.18;5.72;;;17.20;99.90;;;;;;7330989;32;20158;-60
2023/05/20 12:00:24;;;;;;;9.88;6.85;;;17.20;99.90;;;;;;7325924;32;20186;-59
2023/05/20 12:04:30;;;;;;;9.00;6.57;;;17.80;99.90;;;;;;7327249;32;20119;-60
2023/05/20 12:08:32;;;;;;;7.78;6.20;;;17.90;99.90;;;;;;7328961;32;20173;-60
2023/05/20 12:12:35;;;;;;;7.78;5.72;;;18.20;99.90;;;;;;7327248;32;20370;-60
2023/05/20 12:16:37;;;;;;;6.43;4.93;;;18.50;99.90;;;;;;7330347;32;20096;-59
2023/05/20 12:20:39;;;;;;;14.27;12.55;;;18.80;99.90;;;;;;7305397;32;20148;-58
2023/05/20 12:24:41;;;;;;;7.50;4.97;;;19.40;99.90;;;;;;7332776;32;20218;-59
2023/05/20 12:28:43;;;;;;;7.47;5.45;;;19.20;99.90;;;;;;7333081;32;20466;-60
2023/05/20 12:32:46;;;;;;;6.35;5.10;;;19.20;99.90;;;;;;7329039;32;20107;-57
2023/05/20 12:36:48;;;;;;;7.93;5.05;;;18.80;99.90;;;;;;7332760;32;20222;-58
2023/05/20 12:40:50;;;;;;;6.65;5.03;;;18.80;99.90;;;;;;7315120;32;20142;-58
2023/05/20 12:44:51;;;;;;;6.03;4.70;;;18.90;99.90;;;;;;7330176;32;20549;-59
2023/05/20 12:48:53;;;;;;;6.22;4.78;;;18.70;99.90;;;;;;7318148;32;20134;-57
2023/05/20 12:52:55;;;;;;;5.90;4.78;;;18.80;99.90;;;;;;7312763;32;20111;-58
2023/05/20 12:56:57;;;;;;;5.93;4.30;;;18.80;99.90;;;;;;7331651;32;20103;-58
2023/05/20 13:00:59;;;;;;;5.15;4.07;;;18.70;99.90;;;;;;7331529;32;20266;-58
2023/05/20 13:05:01;;;;;;;7.12;4.57;;;18.60;99.90;;;;;;7310863;32;20187;-58
2023/05/20 13:09:03;;;;;;;5.78;4.62;;;18.80;99.90;;;;;;7325610;32;20214;-59
2023/05/20 13:13:04;;;;;;;4.18;3.72;;;19.10;99.90;;;;;;7323386;32;20125;-58
2023/05/20 13:17:06;;;;;;;6.30;4.07;;;19.00;99.90;;;;;;7333076;32;20125;-59
2023/05/20 13:21:08;;;;;;;4.72;3.60;;;18.60;99.90;;;;;;7324063;32;20244;-60
2023/05/20 13:25:10;;;;;;;5.75;3.70;;;18.40;99.90;;;;;;7301153;32;20107;-58
2023/05/20 13:29:12;;;;;;;8.88;3.72;;;18.40;99.90;;;;;;7326551;32;20259;-58
2023/05/20 13:33:14;;;;;;;6.78;3.53;;;18.50;99.90;;;;;;7323301;32;20243;-58
2023/05/20 13:37:16;;;;;;;4.72;3.62;;;18.20;99.90;;;;;;7318457;32;20107;-58
2023/05/20 13:41:18;;;;;;;5.60;3.45;;;18.10;99.90;;;;;;7332188;32;20151;-58
2023/05/20 13:45:21;;;;;;;7.00;3.65;;;18.00;99.90;;;;;;7327693;32;20233;-58
2023/05/20 13:49:24;;;;;;;9.93;3.83;;;18.20;99.90;;;;;;7329221;32;20648;-58
2023/05/20 13:53:26;;;;;;;5.82;3.87;;;18.10;99.90;;;;;;7329036;32;20277;-57
2023/05/20 13:57:28;;;;;;;6.37;3.65;;;18.10;99.90;;;;;;7323482;32;20581;-58
2023/05/20 14:01:32;;;;;;;6.57;4.00;;;18.20;99.90;;;;;;7332947;32;21004;-60
2023/05/20 14:05:34;;;;;;;4.57;3.50;;;18.30;99.90;;;;;;7312905;32;20103;-58
2023/05/20 14:09:36;;;;;;;9.32;4.68;;;18.30;99.90;;;;;;7327870;32;20238;-58
2023/05/20 14:13:38;;;;;;;5.85;4.00;;;18.60;99.90;;;;;;7333465;32;20150;-58
2023/05/20 14:17:39;;;;;;;3.50;3.20;;;18.40;99.90;;;;;;7332391;32;20618;-58
2023/05/20 14:21:41;;;;;;;5.82;3.17;;;18.60;99.90;;;;;;7334553;32;20531;-59
2023/05/20 14:25:43;;;;;;;4.93;3.60;;;18.80;99.90;;;;;;7327672;32;20104;-59
2023/05/20 14:29:45;;;;;;;4.45;3.30;;;19.10;99.90;;;;;;7328473;32;20880;-58
2023/05/20 14:33:48;;;;;;;3.72;2.83;;;19.50;99.90;;;;;;7325504;32;20245;-58
2023/05/20 14:37:50;;;;;;;4.35;3.10;;;20.00;99.90;;;;;;7326631;32;20212;-59
2023/05/20 14:41:51;;;;;;;5.40;2.90;;;20.00;99.90;;;;;;7327071;32;20136;-59
2023/05/20 14:45:53;;;;;;;3.78;2.95;;;19.80;99.90;;;;;;7327573;32;20146;-58
2023/05/20 14:49:55;;;;;;;4.18;3.08;;;19.70;99.90;;;;;;7317966;32;20218;-58
2023/05/20 14:53:57;;;;;;;4.20;3.33;;;19.90;99.90;;;;;;7331217;32;20573;-58
2023/05/20 14:57:59;;;;;;;3.85;3.28;;;19.10;99.90;;;;;;7330220;32;20561;-59
2023/05/20 15:02:01;;;;;;;7.22;3.62;;;19.40;99.90;;;;;;7331768;32;20571;-60
2023/05/20 15:06:03;;;;;;;5.15;3.10;;;19.30;99.90;;;;;;7326196;32;20174;-61
2023/05/20 15:10:05;;;;;;;5.82;3.35;;;19.50;99.90;;;;;;7328195;32;20595;-60
2023/05/20 15:14:07;;;;;;;4.50;3.10;;;18.80;99.90;;;;;;7324470;32;20557;-60
2023/05/20 15:18:09;;;;;;;3.90;3.45;;;18.90;99.90;;;;;;7323077;32;20150;-58
2023/05/20 15:22:11;;;;;;;7.22;4.05;;;18.70;99.90;;;;;;7326024;32;20234;-60
2023/05/20 15:26:13;;;;;;;4.57;3.87;;;18.20;99.90;;;;;;7330699;32;20150;-60
2023/05/20 15:30:15;;;;;;;4.93;3.03;;;18.50;99.90;;;;;;7325472;32;20099;-58
2023/05/20 15:34:17;;;;;;;5.15;3.30;;;18.70;99.90;;;;;;7321653;32;20103;-59
2023/05/20 15:38:19;;;;;;;4.53;3.05;;;18.50;99.90;;;;;;7330830;32;20285;-59
2023/05/20 15:42:21;;;;;;;5.20;3.70;;;18.60;99.90;;;;;;7303433;32;20254;-58
2023/05/20 15:46:24;;;;;;;5.47;3.85;;;18.30;99.90;;;;;;7332421;32;20103;-57
2023/05/20 15:50:27;;;;;;;4.07;3.47;;;18.00;99.90;;;;;;7330288;32;20686;-57
2023/05/20 15:54:28;;;;;;;7.07;4.00;;;17.90;99.90;;;;;;7315060;32;20143;-57
2023/05/20 15:58:31;;;;;;;5.20;3.95;;;18.10;99.90;;;;;;7335532;32;20724;-58
2023/05/20 16:02:32;;;;;;;6.90;4.05;;;18.10;99.90;;;;;;7325902;32;20103;-58
2023/05/20 16:06:37;;;;;;;7.25;4.32;;;17.80;99.90;;;;;;7330961;32;20233;-57
2023/05/20 16:10:39;;;;;;;5.72;4.12;;;17.60;99.90;;;;;;7331757;32;22487;-57
2023/05/20 16:14:41;;;;;;;6.43;4.57;;;17.70;99.90;;;;;;7335070;32;20113;-58
2023/05/20 16:18:43;;;;;;;9.02;4.00;;;17.90;99.90;;;;;;7335678;32;20509;-57
2023/05/20 16:22:45;;;;;;;7.25;4.20;;;17.90;99.90;;;;;;7328554;32;20213;-57
2023/05/20 16:26:46;;;;;;;5.05;3.60;;;18.00;99.90;;;;;;7330784;32;20356;-57
2023/05/20 16:30:48;;;;;;;5.95;4.37;;;17.90;99.90;;;;;;7337429;32;20095;-56
2023/05/20 16:34:50;;;;;;;4.82;3.97;;;17.70;99.90;;;;;;7324939;32;20199;-57
2023/05/20 16:38:52;;;;;;;5.12;3.97;;;17.50;99.90;;;;;;7333185;32;20099;-57
2023/05/20 16:42:53;;;;;;;9.38;4.12;;;17.40;99.90;;;;;;7325166;32;20252;-57
2023/05/20 16:46:55;;;;;;;5.97;4.07;;;17.20;99.90;;;;;;7328895;32;20155;-57
2023/05/20 16:50:57;;;;;;;7.75;4.10;;;17.20;99.90;;;;;;7328940;32;20103;-58
2023/05/20 16:55:02;;;;;;;5.50;4.70;;;17.20;99.90;;;;;;7332415;32;20542;-57
2023/05/20 16:59:04;;;;;;;12.20;8.15;;;17.00;99.90;;;;;;7333884;32;20620;-58
2023/05/20 17:03:05;;;;;;;6.05;4.22;;;16.90;99.90;;;;;;7333573;32;20199;-57
2023/05/20 17:07:08;;;;;;;5.25;4.10;;;17.00;99.90;;;;;;7338383;32;20107;-58
2023/05/20 17:11:10;;;;;;;6.78;4.20;;;16.90;99.90;;;;;;7333429;32;20186;-58
2023/05/20 17:15:12;;;;;;;6.00;4.45;;;16.90;99.90;;;;;;7334183;32;20146;-59
2023/05/20 17:19:14;;;;;;;6.05;4.00;;;16.90;99.90;;;;;;7334568;32;20284;-56
2023/05/20 17:23:15;;;;;;;10.45;4.37;;;16.90;99.90;;;;;;7337780;32;20125;-57
2023/05/20 17:27:17;;;;;;;4.72;3.90;;;16.80;99.90;;;;;;7331755;32;20103;-58
2023/05/20 17:31:19;;;;;;;6.87;4.12;;;16.80;99.90;;;;;;7341049;32;20289;-58
2023/05/20 17:35:24;;;;;;;4.75;4.00;;;16.80;99.90;;;;;;7337379;32;20147;-58
2023/05/20 17:39:26;;;;;;;11.95;6.82;;;16.80;99.90;;;;;;7336275;32;20121;-57
2023/05/20 17:43:27;;;;;;;5.93;3.97;;;16.90;99.90;;;;;;7345298;32;20474;-58
2023/05/20 17:47:29;;;;;;;5.25;4.05;;;16.80;99.90;;;;;;7333044;32;20134;-58
2023/05/20 17:51:31;;;;;;;4.35;3.50;;;16.70;99.90;;;;;;7335797;32;20194;-58
2023/05/20 17:55:35;;;;;;;5.97;4.07;;;16.70;99.90;;;;;;7317655;32;20123;-58
2023/05/20 17:59:40;;;;;;;5.93;3.60;;;16.70;99.90;;;;;;7339233;32;20108;-58
2023/05/20 18:03:42;;;;;;;4.00;3.58;;;16.60;99.90;;;;;;7320218;32;20250;-58
2023/05/20 18:07:44;;;;;;;5.90;4.03;;;16.50;99.90;;;;;;7326159;32;20278;-58
2023/05/20 18:11:46;;;;;;;4.78;4.07;;;16.60;99.90;;;;;;7337857;32;20173;-57
2023/05/20 18:15:47;;;;;;;5.12;3.90;;;16.60;99.90;;;;;;7332170;32;20128;-58
2023/05/20 18:19:49;;;;;;;6.50;4.03;;;16.50;99.90;;;;;;7331720;32;20374;-58
2023/05/20 18:23:51;;;;;;;6.25;3.40;;;16.50;99.90;;;;;;7338222;32;20556;-58
2023/05/20 18:27:53;;;;;;;8.35;4.43;;;16.40;99.90;;;;;;7314430;32;20118;-57
2023/05/20 18:31:54;;;;;;;10.13;4.85;;;16.30;99.90;;;;;;7329316;32;20194;-58
2023/05/20 18:35:57;;;;;;;7.12;4.60;;;16.30;99.90;;;;;;7326631;32;20096;-59
2023/05/20 18:39:59;;;;;;;4.60;4.20;;;16.20;99.90;;;;;;7326812;32;20298;-59
2023/05/20 18:44:01;;;;;;;4.57;3.97;;;16.20;99.90;;;;;;7321251;32;20217;-57
2023/05/20 18:48:06;;;;;;;5.57;4.30;;;16.10;99.90;;;;;;7324542;32;20579;-59
2023/05/20 18:52:07;;;;;;;8.85;4.85;;;16.10;99.90;;;;;;7332993;32;20667;-58
2023/05/20 18:56:10;;;;;;;6.53;4.80;;;16.00;99.90;;;;;;7323433;32;20107;-57
2023/05/20 19:00:12;;;;;;;7.07;4.70;;;16.00;99.90;;;;;;7328556;32;20202;-56
2023/05/20 19:04:14;;;;;;;5.50;4.57;;;15.80;99.90;;;;;;7325938;32;20124;-57
2023/05/20 19:08:16;;;;;;;6.45;4.65;;;15.70;99.90;;;;;;7326922;32;20119;-58
2023/05/20 19:12:18;;;;;;;6.68;5.25;;;15.60;99.90;;;;;;7333459;32;20129;-58
2023/05/20 19:16:20;;;;;;;7.43;4.85;;;15.60;99.90;;;;;;7336015;32;20392;-57
2023/05/20 19:20:22;;;;;;;9.88;6.10;;;15.40;99.90;;;;;;7340048;32;20119;-57
2023/05/20 19:24:23;;;;;;;7.22;5.72;;;15.30;99.90;;;;;;7332484;32;20217;-57
2023/05/20 19:28:25;;;;;;;8.45;6.32;;;15.20;99.90;;;;;;7330716;32;20103;-57
2023/05/20 19:32:27;;;;;;;8.60;6.45;;;15.20;99.90;;;;;;7336150;32;20772;-57
2023/05/20 19:36:29;;;;;;;7.03;5.87;;;15.10;99.90;;;;;;7338293;32;20126;-57
2023/05/20 19:40:31;;;;;;;10.10;6.43;;;15.00;99.90;;;;;;7329860;32;20732;-57
2023/05/20 19:44:33;;;;;;;10.63;6.65;;;15.00;99.90;;;;;;7337598;32;20103;-56
2023/05/20 19:48:35;;;;;;;8.40;6.47;;;14.90;99.90;;;;;;7330282;32;20130;-56
2023/05/20 19:52:37;;;;;;;12.18;7.35;;;14.80;99.90;;;;;;7324779;32;20221;-58
2023/05/20 19:56:39;;;;;;;10.52;6.87;;;14.80;99.90;;;;;;7333104;32;20115;-57
2023/05/20 20:00:40;;;;;;;9.50;7.00;;;14.80;99.90;;;;;;7333628;32;20160;-56
2023/05/20 20:04:42;;;;;;;10.05;7.50;;;14.70;99.90;;;;;;7324638;32;20206;-56
2023/05/20 20:08:45;;;;;;;8.80;7.07;;;14.60;99.90;;;;;;7306251;32;20281;-57
2023/05/20 20:12:47;;;;;;;7.82;6.72;;;14.40;99.90;;;;;;7318361;32;20176;-56
2023/05/20 20:16:49;;;;;;;12.82;7.80;;;14.40;99.90;;;;;;7322300;32;20285;-56
2023/05/20 20:20:52;;;;;;;9.45;7.50;;;14.40;99.90;;;;;;7317947;32;20120;-57
2023/05/20 20:24:54;;;;;;;11.70;7.97;;;14.30;99.90;;;;;;7317619;32;20193;-57
2023/05/20 20:28:56;;;;;;;10.52;8.05;;;14.20;99.90;;;;;;7316264;32;20191;-56
2023/05/20 20:32:58;;;;;;;10.65;7.87;;;14.20;99.90;;;;;;7316305;32;20115;-56
2023/05/20 20:37:00;;;;;;;10.07;8.13;;;14.10;99.90;;;;;;7321873;32;20139;-57
2023/05/20 20:41:02;;;;;;;12.05;8.57;;;14.00;99.90;;;;;;7319667;32;20150;-56
2023/05/20 20:45:05;;;;;;;13.85;8.80;;;14.00;99.90;;;;;;7322370;32;20687;-57
2023/05/20 20:49:07;;;;;;;12.35;8.75;;;13.90;99.90;;;;;;7327946;32;20121;-56
2023/05/20 20:53:09;;;;;;;10.45;8.07;;;13.90;99.90;;;;;;7331215;32;20328;-56
2023/05/20 20:57:10;;;;;;;13.00;8.93;;;13.80;99.90;;;;;;7331216;32;20221;-56
2023/05/20 21:01:16;;;;;;;12.93;9.00;;;13.70;99.90;;;;;;7331037;32;20135;-56
2023/05/20 21:05:20;;;;;;;13.95;8.57;;;13.80;99.90;;;;;;7325040;32;20107;-56